createdAt,value
2022-08-26T00:00:23.241Z,11.77
2022-08-26T00:03:12.737Z,12.85
2022-08-26T00:06:01.645Z,12.30
2022-08-26T00:08:49.800Z,12.18
2022-08-26T00:11:37.755Z,13.80
2022-08-26T00:14:30.744Z,12.93
2022-08-26T00:17:19.470Z,12.45
2022-08-26T00:20:08.069Z,13.13
2022-08-26T00:22:55.710Z,12.93
2022-08-26T00:25:43.623Z,12.70
2022-08-26T00:28:31.444Z,13.45
2022-08-26T00:31:19.017Z,13.27
2022-08-26T00:34:06.801Z,12.77
2022-08-26T00:36:57.118Z,11.85
2022-08-26T00:39:44.680Z,13.45
2022-08-26T00:42:33.087Z,12.35
2022-08-26T00:45:21.050Z,12.82
2022-08-26T00:48:09.857Z,12.48
2022-08-26T00:50:59.430Z,13.13
2022-08-26T00:53:53.317Z,12.50
2022-08-26T00:56:56.488Z,12.30
2022-08-26T00:59:46.465Z,12.88
2022-08-26T01:02:35.627Z,12.95
2022-08-26T01:05:25.359Z,12.80
2022-08-26T01:08:12.733Z,14.13
2022-08-26T01:11:00.889Z,14.13
2022-08-26T01:13:49.853Z,14.60
2022-08-26T01:16:37.748Z,13.73
2022-08-26T01:19:34.086Z,13.02
2022-08-26T01:22:52.278Z,13.65
2022-08-26T01:25:43.118Z,17.52
2022-08-26T01:28:32.196Z,12.93
2022-08-26T01:31:22.027Z,13.45
2022-08-26T01:34:10.892Z,14.13
2022-08-26T01:37:13.756Z,13.50
2022-08-26T01:40:04.312Z,14.35
2022-08-26T01:42:52.892Z,13.57
2022-08-26T01:45:41.101Z,12.32
2022-08-26T01:48:30.750Z,14.35
2022-08-26T01:51:19.266Z,13.38
2022-08-26T01:54:11.931Z,13.15
2022-08-26T01:57:00.743Z,12.65
2022-08-26T01:59:50.306Z,14.60
2022-08-26T02:02:38.225Z,13.73
2022-08-26T02:05:25.679Z,12.93
2022-08-26T02:08:14.143Z,13.32
2022-08-26T02:11:06.726Z,13.82
2022-08-26T02:14:05.815Z,13.90
2022-08-26T02:16:54.444Z,13.75
2022-08-26T02:19:42.936Z,13.23
2022-08-26T02:22:32.079Z,13.18
2022-08-26T02:25:28.820Z,13.35
2022-08-26T02:28:17.667Z,13.32
2022-08-26T02:31:07.446Z,14.10
2022-08-26T02:33:55.979Z,13.88
2022-08-26T02:36:44.466Z,13.52
2022-08-26T02:39:32.436Z,13.77
2022-08-26T02:42:20.459Z,14.77
2022-08-26T02:45:08.687Z,15.52
2022-08-26T02:47:58.065Z,14.32
2022-08-26T02:50:47.500Z,13.95
2022-08-26T02:53:35.522Z,14.85
2022-08-26T02:56:23.916Z,14.52
2022-08-26T02:59:15.354Z,14.63
2022-08-26T03:02:03.606Z,14.20
2022-08-26T03:04:58.144Z,14.60
2022-08-26T03:07:50.043Z,14.43
2022-08-26T03:10:37.957Z,14.05
2022-08-26T03:16:59.165Z,13.57
2022-08-26T03:19:52.911Z,12.25
2022-08-26T03:22:45.023Z,12.35
2022-08-26T03:25:41.302Z,13.65
2022-08-26T03:28:29.078Z,14.02
2022-08-26T03:31:17.348Z,12.60
2022-08-26T03:34:04.928Z,13.05
2022-08-26T03:36:53.176Z,12.73
2022-08-26T03:39:40.502Z,13.73
2022-08-26T03:42:28.902Z,12.93
2022-08-26T03:45:17.728Z,12.75
2022-08-26T03:48:05.453Z,12.90
2022-08-26T03:50:53.461Z,12.65
2022-08-26T03:53:41.048Z,12.88
2022-08-26T03:56:28.984Z,12.63
2022-08-26T03:59:16.282Z,12.43
2022-08-26T04:02:04.194Z,12.18
2022-08-26T04:04:58.718Z,13.18
2022-08-26T04:07:46.975Z,12.85
2022-08-26T04:10:38.323Z,12.63
2022-08-26T04:13:25.651Z,12.65
2022-08-26T04:16:13.345Z,12.63
2022-08-26T04:19:02.321Z,12.43
2022-08-26T04:21:53.640Z,13.50
2022-08-26T04:24:41.425Z,12.77
2022-08-26T04:27:28.779Z,12.05
2022-08-26T04:30:16.832Z,12.77
2022-08-26T04:33:11.651Z,12.70
2022-08-26T04:36:05.874Z,11.95
2022-08-26T04:38:53.527Z,12.85
2022-08-26T04:41:41.353Z,12.60
2022-08-26T04:44:30.090Z,12.90
2022-08-26T04:47:17.423Z,12.52
2022-08-26T04:50:07.506Z,12.40
2022-08-26T04:52:55.450Z,12.82
2022-08-26T04:55:45.068Z,12.05
2022-08-26T04:58:32.873Z,12.18
2022-08-26T05:01:21.102Z,12.43
2022-08-26T05:17:50.739Z,11.98
2022-08-26T05:20:49.240Z,11.65
2022-08-26T05:23:46.643Z,11.05
2022-08-26T05:26:45.046Z,11.00
2022-08-26T05:29:37.004Z,11.07
2022-08-26T05:33:06.470Z,11.90
2022-08-26T05:36:01.379Z,11.93
2022-08-26T05:39:41.211Z,11.85
2022-08-26T05:48:57.597Z,11.95
2022-08-26T05:51:47.731Z,11.55
2022-08-26T05:54:35.871Z,11.55
2022-08-26T05:57:23.289Z,11.65
2022-08-26T06:00:12.529Z,11.45
2022-08-26T06:03:00.066Z,11.27
2022-08-26T06:05:48.778Z,10.93
2022-08-26T06:08:37.474Z,11.60
2022-08-26T06:11:25.462Z,10.85
2022-08-26T06:14:13.142Z,11.18
2022-08-26T06:17:00.792Z,10.07
2022-08-26T06:19:48.675Z,10.88
2022-08-26T06:22:54.985Z,10.38
2022-08-26T06:25:43.032Z,9.02
2022-08-26T06:28:31.472Z,9.52
2022-08-26T06:31:20.326Z,8.70
2022-08-26T06:34:10.765Z,9.65
2022-08-26T06:37:33.679Z,9.68
2022-08-26T06:40:29.248Z,9.75
2022-08-26T06:43:18.812Z,9.35
2022-08-26T06:46:08.406Z,9.20
2022-08-26T06:49:03.725Z,9.70
2022-08-26T06:51:51.784Z,9.75
2022-08-26T06:54:45.500Z,8.90
2022-08-26T06:57:39.743Z,9.52
2022-08-26T07:00:32.711Z,9.02
2022-08-26T07:03:27.674Z,9.63
2022-08-26T07:06:19.486Z,8.63
2022-08-26T07:09:09.905Z,8.68
2022-08-26T07:11:58.487Z,8.25
2022-08-26T07:14:47.517Z,8.38
2022-08-26T07:17:36.830Z,8.07
2022-08-26T07:20:26.033Z,7.32
2022-08-26T07:23:14.241Z,7.93
2022-08-26T07:26:08.138Z,8.23
2022-08-26T07:28:59.518Z,8.73
2022-08-26T07:31:49.773Z,7.72
2022-08-26T07:34:41.913Z,7.95
2022-08-26T07:37:30.591Z,7.28
2022-08-26T07:40:26.502Z,7.15
2022-08-26T07:43:14.900Z,7.35
2022-08-26T07:46:03.431Z,7.07
2022-08-26T07:48:51.759Z,7.45
2022-08-26T07:51:39.788Z,7.57
2022-08-26T07:54:27.585Z,6.38
2022-08-26T07:57:15.125Z,5.72
2022-08-26T08:00:08.564Z,5.65
2022-08-26T08:02:56.167Z,5.47
2022-08-26T08:05:46.372Z,5.35
2022-08-26T08:08:35.964Z,5.70
2022-08-26T08:11:24.187Z,5.53
2022-08-26T08:14:12.627Z,5.60
2022-08-26T08:17:00.474Z,5.22
2022-08-26T08:19:50.566Z,5.00
2022-08-26T08:22:41.183Z,5.03
2022-08-26T08:25:35.578Z,4.95
2022-08-26T08:28:23.948Z,5.45
2022-08-26T08:31:45.061Z,5.38
2022-08-26T08:35:38.509Z,5.78
2022-08-26T08:39:06.997Z,5.28
2022-08-26T08:42:43.638Z,4.85
2022-08-26T08:49:53.780Z,5.57
2022-08-26T08:58:02.185Z,5.22
2022-08-26T09:00:30.355Z,5.45
2022-08-26T09:03:45.703Z,5.15
2022-08-26T09:06:35.892Z,5.72
2022-08-26T09:09:32.966Z,5.45
2022-08-26T09:12:29.605Z,5.35
2022-08-26T09:15:51.016Z,5.93
2022-08-26T09:19:11.085Z,5.43
2022-08-26T09:22:00.377Z,5.18
2022-08-26T09:24:49.812Z,5.75
2022-08-26T09:27:47.272Z,6.68
2022-08-26T09:30:37.690Z,5.60
2022-08-26T09:33:30.567Z,5.72
2022-08-26T09:36:35.415Z,5.53
2022-08-26T09:39:29.686Z,5.45
2022-08-26T09:42:27.393Z,6.03
2022-08-26T09:49:41.132Z,6.20
2022-08-26T09:52:29.318Z,6.07
2022-08-26T09:55:26.350Z,5.43
2022-08-26T09:58:39.293Z,5.68
2022-08-26T10:01:35.406Z,5.47
2022-08-26T10:04:25.327Z,5.47
2022-08-26T10:07:15.441Z,5.78
2022-08-26T10:10:06.154Z,5.95
2022-08-26T10:13:19.085Z,5.78
2022-08-26T10:16:22.487Z,5.30
2022-08-26T10:19:17.526Z,5.55
2022-08-26T10:22:18.944Z,5.72
2022-08-26T10:25:12.341Z,5.15
2022-08-26T10:28:19.085Z,5.25
2022-08-26T10:31:28.588Z,5.05
2022-08-26T10:34:17.943Z,4.65
2022-08-26T10:37:15.741Z,5.15
2022-08-26T10:40:13.242Z,4.40
2022-08-26T10:43:14.180Z,4.93
2022-08-26T10:46:08.360Z,4.35
2022-08-26T10:48:59.842Z,4.65
2022-08-26T10:51:52.136Z,4.05
2022-08-26T10:54:54.392Z,4.40
2022-08-26T10:58:04.738Z,4.68
2022-08-26T11:01:29.057Z,4.57
2022-08-26T11:04:47.536Z,3.90
2022-08-26T11:07:42.352Z,5.05
2022-08-26T11:10:40.590Z,4.72
2022-08-26T11:13:48.474Z,5.07
2022-08-26T11:16:42.809Z,5.07
2022-08-26T11:19:50.597Z,5.35
2022-08-26T11:22:45.459Z,5.70
2022-08-26T11:25:55.637Z,5.53
2022-08-26T11:28:49.097Z,5.53
2022-08-26T11:31:39.457Z,4.95
2022-08-26T11:34:47.437Z,4.72
2022-08-26T11:37:41.193Z,5.63
2022-08-26T11:40:30.530Z,4.50
2022-08-26T11:43:19.889Z,3.92
2022-08-26T11:46:09.683Z,4.20
2022-08-26T11:49:05.847Z,3.80
2022-08-26T11:51:55.720Z,3.47
2022-08-26T11:54:59.820Z,3.50
2022-08-26T11:57:52.583Z,3.80
2022-08-26T12:00:57.994Z,3.60
2022-08-26T12:03:45.210Z,3.25
2022-08-26T12:06:45.027Z,3.63
2022-08-26T12:09:35.159Z,4.10
2022-08-26T12:12:25.000Z,3.78
2022-08-26T12:15:13.220Z,3.95
2022-08-26T12:18:17.260Z,3.67
2022-08-26T12:21:13.519Z,3.72
2022-08-26T12:24:01.683Z,3.53
2022-08-26T12:26:50.068Z,3.85
2022-08-26T12:29:37.644Z,3.78
2022-08-26T12:32:27.379Z,4.00
2022-08-26T12:35:17.178Z,4.30
2022-08-26T12:38:05.197Z,4.22
2022-08-26T12:40:52.817Z,4.03
2022-08-26T12:43:42.729Z,4.38
2022-08-26T12:46:30.961Z,4.45
2022-08-26T12:49:19.379Z,3.92
2022-08-26T12:52:08.724Z,3.90
2022-08-26T12:55:08.259Z,4.63
2022-08-26T12:58:13.940Z,4.28
2022-08-26T13:01:04.689Z,4.43
2022-08-26T13:03:52.356Z,4.78
2022-08-26T13:06:40.359Z,4.65
2022-08-26T13:09:28.254Z,4.55
2022-08-26T13:12:29.569Z,4.05
2022-08-26T13:15:19.084Z,4.00
2022-08-26T13:18:06.399Z,3.30
2022-08-26T13:20:54.313Z,4.00
2022-08-26T13:23:42.693Z,3.75
2022-08-26T13:26:30.130Z,4.50
2022-08-26T13:29:18.505Z,4.57
2022-08-26T13:32:07.759Z,4.47
2022-08-26T13:34:57.265Z,3.75
2022-08-26T13:37:45.146Z,4.70
2022-08-26T13:40:34.808Z,4.53
2022-08-26T13:43:22.359Z,4.22
2022-08-26T13:46:10.293Z,4.20
2022-08-26T13:48:58.473Z,3.70
2022-08-26T13:51:45.859Z,4.00
2022-08-26T13:54:33.765Z,3.95
2022-08-26T13:57:24.562Z,4.18
2022-08-26T14:00:12.358Z,4.03
2022-08-26T14:03:04.000Z,4.03
2022-08-26T14:05:52.273Z,4.22
2022-08-26T14:08:40.184Z,4.15
2022-08-26T14:11:30.160Z,4.30
2022-08-26T14:14:29.004Z,4.30
2022-08-26T14:17:19.455Z,4.03
2022-08-26T14:20:09.321Z,4.45
2022-08-26T14:23:13.072Z,4.00
2022-08-26T14:26:08.111Z,4.18
2022-08-26T14:28:55.572Z,3.70
2022-08-26T14:31:43.459Z,4.68
2022-08-26T14:34:31.545Z,4.30
2022-08-26T14:37:19.543Z,4.00
2022-08-26T14:40:07.290Z,4.38
2022-08-26T14:42:55.644Z,4.47
2022-08-26T14:45:46.899Z,4.57
2022-08-26T14:48:34.339Z,4.32
2022-08-26T14:51:21.916Z,4.55
2022-08-26T14:54:14.156Z,4.05
2022-08-26T14:57:03.785Z,4.63
2022-08-26T14:59:51.757Z,4.63
2022-08-26T15:02:39.313Z,4.32
2022-08-26T15:05:27.490Z,4.85
2022-08-26T15:08:15.911Z,4.20
2022-08-26T15:11:04.519Z,4.35
2022-08-26T15:13:52.921Z,4.22
2022-08-26T15:16:40.882Z,4.45
2022-08-26T15:19:28.478Z,4.68
2022-08-26T15:22:16.042Z,4.88
2022-08-26T15:25:03.487Z,4.28
2022-08-26T15:27:51.520Z,4.15
2022-08-26T15:30:39.360Z,4.95
2022-08-26T15:33:27.110Z,4.70
2022-08-26T15:36:14.536Z,5.18
2022-08-26T15:39:02.566Z,4.90
2022-08-26T15:41:50.163Z,4.88
2022-08-26T15:44:38.203Z,5.20
2022-08-26T15:47:25.666Z,5.25
2022-08-26T15:50:13.516Z,4.53
2022-08-26T15:53:01.410Z,4.82
2022-08-26T15:55:49.391Z,5.45
2022-08-26T15:58:37.357Z,4.72
2022-08-26T16:01:27.497Z,5.05
2022-08-26T16:04:15.991Z,5.35
2022-08-26T16:07:04.369Z,5.32
2022-08-26T16:09:54.417Z,5.32
2022-08-26T16:12:43.120Z,5.10
2022-08-26T16:15:32.522Z,5.57
2022-08-26T16:18:20.899Z,5.40
2022-08-26T16:21:16.038Z,5.68
2022-08-26T16:24:04.448Z,6.00
2022-08-26T16:26:51.990Z,5.38
2022-08-26T16:29:40.334Z,5.28
2022-08-26T16:32:31.146Z,5.07
2022-08-26T16:35:19.215Z,5.30
2022-08-26T16:38:06.697Z,5.68
2022-08-26T16:40:54.640Z,5.32
2022-08-26T16:43:42.069Z,7.20
2022-08-26T16:46:30.014Z,6.18
2022-08-26T16:49:17.453Z,6.43
2022-08-26T16:52:05.432Z,6.38
2022-08-26T16:54:53.167Z,5.53
2022-08-26T16:57:41.893Z,6.57
2022-08-26T17:00:32.710Z,6.70
2022-08-26T17:03:20.613Z,7.55
2022-08-26T17:06:08.600Z,6.55
2022-08-26T17:08:56.193Z,6.82
2022-08-26T17:11:44.082Z,7.40
2022-08-26T17:14:33.384Z,7.25
2022-08-26T17:17:21.260Z,6.60
2022-08-26T17:20:11.335Z,6.60
2022-08-26T17:22:59.433Z,7.22
2022-08-26T17:25:47.435Z,6.95
2022-08-26T17:28:35.438Z,6.82
2022-08-26T17:31:23.580Z,6.97
2022-08-26T17:34:11.027Z,7.13
2022-08-26T17:36:59.031Z,6.57
2022-08-26T17:39:46.990Z,6.95
2022-08-26T17:42:34.417Z,7.80
2022-08-26T17:45:22.657Z,7.30
2022-08-26T17:48:11.097Z,7.55
2022-08-26T17:50:58.866Z,7.18
2022-08-26T17:53:46.763Z,6.88
2022-08-26T17:56:34.602Z,7.35
2022-08-26T17:59:22.016Z,7.65
2022-08-26T18:02:10.680Z,6.88
2022-08-26T18:04:58.580Z,7.22
2022-08-26T18:07:46.532Z,7.13
2022-08-26T18:10:34.001Z,7.40
2022-08-26T18:13:21.782Z,7.38
2022-08-26T18:16:10.617Z,6.60
2022-08-26T18:18:58.381Z,7.50
2022-08-26T18:21:46.449Z,7.70
2022-08-26T18:24:36.443Z,7.80
2022-08-26T18:27:24.713Z,7.45
2022-08-26T18:30:18.195Z,7.20
2022-08-26T18:33:05.815Z,7.40
2022-08-26T18:35:53.166Z,8.02
2022-08-26T18:38:40.592Z,7.45
2022-08-26T18:41:31.120Z,7.28
2022-08-26T18:44:20.262Z,6.78
2022-08-26T18:47:07.849Z,6.65
2022-08-26T18:49:55.313Z,6.93
2022-08-26T18:52:43.400Z,6.35
2022-08-26T18:55:30.853Z,4.20
2022-08-26T18:58:18.147Z,2.95
2022-08-26T19:01:06.084Z,2.50
2022-08-26T19:03:54.166Z,4.70
2022-08-26T19:06:42.374Z,6.30
2022-08-26T19:09:31.548Z,6.45
2022-08-26T19:12:18.992Z,9.73
2022-08-26T19:15:06.691Z,17.27
2022-08-26T19:17:53.798Z,8.60
2022-08-26T19:20:46.500Z,8.60
2022-08-26T19:23:34.381Z,10.20
2022-08-26T19:26:21.437Z,7.13
2022-08-26T19:29:08.866Z,5.68
2022-08-26T19:31:56.940Z,6.10
2022-08-26T19:34:44.451Z,5.65
2022-08-26T19:37:31.520Z,6.30
2022-08-26T19:40:18.489Z,7.50
2022-08-26T19:43:06.875Z,6.45
2022-08-26T19:45:53.827Z,5.78
2022-08-26T19:48:44.411Z,5.47
2022-08-26T19:51:33.503Z,4.53
2022-08-26T19:54:22.688Z,4.78
2022-08-26T19:57:10.093Z,4.55
2022-08-26T19:59:58.822Z,4.90
2022-08-26T20:02:45.890Z,4.88
2022-08-26T20:05:33.652Z,4.93
2022-08-26T20:08:22.690Z,6.22
2022-08-26T20:11:14.928Z,5.30
2022-08-26T20:14:02.008Z,6.15
2022-08-26T20:16:49.305Z,6.07
2022-08-26T20:19:55.340Z,6.78
2022-08-26T20:22:42.511Z,7.28
2022-08-26T20:25:29.959Z,5.82
2022-08-26T20:28:17.063Z,6.07
2022-08-26T20:31:04.916Z,5.35
2022-08-26T20:33:52.523Z,5.88
2022-08-26T20:36:41.115Z,6.20
2022-08-26T20:39:30.966Z,6.97
2022-08-26T20:42:20.232Z,7.13
2022-08-26T20:45:08.213Z,6.95
2022-08-26T20:47:55.511Z,6.55
2022-08-26T20:50:42.741Z,6.35
2022-08-26T20:53:30.301Z,6.93
2022-08-26T20:56:23.572Z,8.50
2022-08-26T20:59:10.997Z,6.85
2022-08-26T21:01:58.525Z,7.57
2022-08-26T21:04:45.505Z,7.10
2022-08-26T21:07:32.997Z,7.00
2022-08-26T21:10:20.193Z,7.03
2022-08-26T21:13:10.234Z,8.20
2022-08-26T21:15:58.693Z,8.50
2022-08-26T21:18:47.279Z,7.82
2022-08-26T21:21:34.749Z,7.75
2022-08-26T21:24:22.059Z,8.75
2022-08-26T21:27:09.198Z,8.52
2022-08-26T21:29:56.775Z,8.23
2022-08-26T21:32:43.719Z,7.50
2022-08-26T21:35:31.215Z,8.38
2022-08-26T21:38:18.077Z,8.38
2022-08-26T21:41:23.939Z,7.45
2022-08-26T21:44:12.165Z,7.25
2022-08-26T21:46:59.517Z,7.30
2022-08-26T21:49:46.544Z,6.95
2022-08-26T21:52:34.067Z,6.80
2022-08-26T21:55:21.130Z,7.13
2022-08-26T21:58:09.586Z,6.10
2022-08-26T22:00:57.015Z,6.85
2022-08-26T22:03:47.068Z,6.57
2022-08-26T22:06:39.581Z,6.22
2022-08-26T22:09:29.447Z,6.75
2022-08-26T22:12:18.293Z,5.95
2022-08-26T22:15:06.190Z,6.10
2022-08-26T22:17:53.275Z,6.78
2022-08-26T22:20:40.613Z,6.10
2022-08-26T22:23:28.613Z,6.93
2022-08-26T22:26:25.307Z,6.75
2022-08-26T22:29:12.734Z,6.60
2022-08-26T22:32:01.366Z,6.45
2022-08-26T22:34:48.970Z,7.25
2022-08-26T22:37:36.015Z,7.88
2022-08-26T22:40:24.012Z,7.78
2022-08-26T22:43:12.803Z,9.00
2022-08-26T22:46:00.195Z,8.68
2022-08-26T22:48:51.956Z,8.85
2022-08-26T22:51:41.519Z,8.65
2022-08-26T22:54:28.846Z,9.20
2022-08-26T22:57:15.983Z,9.93
2022-08-26T23:00:04.294Z,9.52
2022-08-26T23:02:51.427Z,8.73
2022-08-26T23:05:40.360Z,9.57
2022-08-26T23:08:27.499Z,9.77
2022-08-26T23:11:15.419Z,10.73
2022-08-26T23:14:05.068Z,9.40
2022-08-26T23:16:54.171Z,9.73
2022-08-26T23:19:41.246Z,11.13
2022-08-26T23:22:29.046Z,10.15
2022-08-26T23:25:16.416Z,9.60
2022-08-26T23:28:04.189Z,10.13
2022-08-26T23:30:51.141Z,10.30
2022-08-26T23:33:56.838Z,10.35
2022-08-26T23:36:46.274Z,9.98
2022-08-26T23:39:35.250Z,11.50
2022-08-26T23:42:23.235Z,10.55
2022-08-26T23:45:13.430Z,9.75
2022-08-26T23:48:01.031Z,9.70
2022-08-26T23:51:07.292Z,9.10
2022-08-26T23:53:54.212Z,9.38
2022-08-26T23:56:41.715Z,9.70
2022-08-26T23:59:29.088Z,8.80
